sensor_id;sensor_type;location;lat;lon;timestamp;temperature;humidity
1538;DHT22;12022;52.266;10.522;2022-08-06T00:02:34;14.80;99.90
1538;DHT22;12022;52.266;10.522;2022-08-06T00:05:02;14.70;99.90
1538;DHT22;12022;52.266;10.522;2022-08-06T00:07:33;14.70;99.90
1538;DHT22;12022;52.266;10.522;2022-08-06T00:10:15;14.70;99.90
1538;DHT22;12022;52.266;10.522;2022-08-06T00:12:42;14.60;99.90
1538;DHT22;12022;52.266;10.522;2022-08-06T00:15:13;14.60;99.90
1538;DHT22;12022;52.266;10.522;2022-08-06T00:17:41;14.50;99.90
1538;DHT22;12022;52.266;10.522;2022-08-06T00:20:13;14.50;99.90
1538;DHT22;12022;52.266;10.522;2022-08-06T00:22:58;14.50;99.90
1538;DHT22;12022;52.266;10.522;2022-08-06T00:25:26;14.50;99.90
1538;DHT22;12022;52.266;10.522;2022-08-06T00:27:54;14.50;99.90
1538;DHT22;12022;52.266;10.522;2022-08-06T00:30:21;14.50;99.90
1538;DHT22;12022;52.266;10.522;2022-08-06T00:32:49;14.40;99.90
1538;DHT22;12022;52.266;10.522;2022-08-06T00:35:19;14.40;99.90
1538;DHT22;12022;52.266;10.522;2022-08-06T00:37:50;14.40;99.90
1538;DHT22;12022;52.266;10.522;2022-08-06T00:40:29;14.40;99.90
1538;DHT22;12022;52.266;10.522;2022-08-06T00:43:01;14.40;99.90
1538;DHT22;12022;52.266;10.522;2022-08-06T00:45:35;14.30;99.90
1538;DHT22;12022;52.266;10.522;2022-08-06T00:48:12;14.30;99.90
1538;DHT22;12022;52.266;10.522;2022-08-06T00:51:00;14.20;99.90
1538;DHT22;12022;52.266;10.522;2022-08-06T00:53:27;14.20;99.90
1538;DHT22;12022;52.266;10.522;2022-08-06T00:56:00;14.20;99.90
1538;DHT22;12022;52.266;10.522;2022-08-06T00:58:36;14.20;99.90
1538;DHT22;12022;52.266;10.522;2022-08-06T01:01:10;14.20;99.90
1538;DHT22;12022;52.266;10.522;2022-08-06T01:03:47;14.20;99.90
1538;DHT22;12022;52.266;10.522;2022-08-06T01:06:19;14.10;99.90
1538;DHT22;12022;52.266;10.522;2022-08-06T01:09:07;14.10;99.90
1538;DHT22;12022;52.266;10.522;2022-08-06T01:11:39;14.10;99.90
1538;DHT22;12022;52.266;10.522;2022-08-06T01:14:08;14.10;99.90
1538;DHT22;12022;52.266;10.522;2022-08-06T01:16:57;14.00;99.90
1538;DHT22;12022;52.266;10.522;2022-08-06T01:23:07;14.00;99.90
1538;DHT22;12022;52.266;10.522;2022-08-06T01:28:33;13.90;99.90
1538;DHT22;12022;52.266;10.522;2022-08-06T01:31:13;13.90;99.90
1538;DHT22;12022;52.266;10.522;2022-08-06T01:33:45;13.90;99.90
1538;DHT22;12022;52.266;10.522;2022-08-06T01:36:20;13.90;99.90
1538;DHT22;12022;52.266;10.522;2022-08-06T01:38:57;13.90;99.90
1538;DHT22;12022;52.266;10.522;2022-08-06T01:41:36;13.80;99.90
1538;DHT22;12022;52.266;10.522;2022-08-06T01:44:33;13.80;99.90
1538;DHT22;12022;52.266;10.522;2022-08-06T01:47:06;13.80;99.90
1538;DHT22;12022;52.266;10.522;2022-08-06T01:49:48;13.80;99.90
1538;DHT22;12022;52.266;10.522;2022-08-06T01:52:49;13.80;99.90
1538;DHT22;12022;52.266;10.522;2022-08-06T01:55:28;13.80;99.90
1538;DHT22;12022;52.266;10.522;2022-08-06T01:58:21;13.70;99.90
1538;DHT22;12022;52.266;10.522;2022-08-06T02:00:58;13.70;99.90
1538;DHT22;12022;52.266;10.522;2022-08-06T02:06:34;13.70;99.90
1538;DHT22;12022;52.266;10.522;2022-08-06T02:09:05;13.60;99.90
1538;DHT22;12022;52.266;10.522;2022-08-06T02:11:56;13.60;99.90
1538;DHT22;12022;52.266;10.522;2022-08-06T02:14:32;13.60;99.90
1538;DHT22;12022;52.266;10.522;2022-08-06T02:17:02;13.60;99.90
1538;DHT22;12022;52.266;10.522;2022-08-06T02:19:46;13.50;99.90
1538;DHT22;12022;52.266;10.522;2022-08-06T02:22:37;13.50;99.90
1538;DHT22;12022;52.266;10.522;2022-08-06T02:25:10;13.50;99.90
1538;DHT22;12022;52.266;10.522;2022-08-06T02:27:53;13.40;99.90
1538;DHT22;12022;52.266;10.522;2022-08-06T02:30:28;13.40;99.90
1538;DHT22;12022;52.266;10.522;2022-08-06T02:33:04;13.40;99.90
1538;DHT22;12022;52.266;10.522;2022-08-06T02:38:35;13.40;99.90
1538;DHT22;12022;52.266;10.522;2022-08-06T02:41:24;13.40;99.90
1538;DHT22;12022;52.266;10.522;2022-08-06T02:44:02;13.30;99.90
1538;DHT22;12022;52.266;10.522;2022-08-06T02:46:55;13.30;99.90
1538;DHT22;12022;52.266;10.522;2022-08-06T02:49:32;13.30;99.90
1538;DHT22;12022;52.266;10.522;2022-08-06T02:52:11;13.30;99.90
1538;DHT22;12022;52.266;10.522;2022-08-06T02:57:39;13.20;99.90
1538;DHT22;12022;52.266;10.522;2022-08-06T03:00:18;13.20;99.90
1538;DHT22;12022;52.266;10.522;2022-08-06T03:02:58;13.20;99.90
1538;DHT22;12022;52.266;10.522;2022-08-06T03:05:27;13.20;99.90
1538;DHT22;12022;52.266;10.522;2022-08-06T03:08:18;13.20;99.90
1538;DHT22;12022;52.266;10.522;2022-08-06T03:10:54;13.10;99.90
1538;DHT22;12022;52.266;10.522;2022-08-06T03:13:22;13.10;99.90
1538;DHT22;12022;52.266;10.522;2022-08-06T03:15:56;13.10;99.90
1538;DHT22;12022;52.266;10.522;2022-08-06T03:18:28;13.10;99.90
1538;DHT22;12022;52.266;10.522;2022-08-06T03:20:56;13.10;99.90
1538;DHT22;12022;52.266;10.522;2022-08-06T03:23:25;13.10;99.90
1538;DHT22;12022;52.266;10.522;2022-08-06T03:25:54;13.10;99.90
1538;DHT22;12022;52.266;10.522;2022-08-06T03:28:23;13.10;99.90
1538;DHT22;12022;52.266;10.522;2022-08-06T03:30:51;13.10;99.90
1538;DHT22;12022;52.266;10.522;2022-08-06T03:33:22;13.30;99.90
1538;DHT22;12022;52.266;10.522;2022-08-06T03:36:09;13.10;99.90
1538;DHT22;12022;52.266;10.522;2022-08-06T03:39:02;13.10;99.90
1538;DHT22;12022;52.266;10.522;2022-08-06T03:41:32;13.10;99.90
1538;DHT22;12022;52.266;10.522;2022-08-06T03:44:20;13.10;99.90
1538;DHT22;12022;52.266;10.522;2022-08-06T03:47:04;13.00;99.90
1538;DHT22;12022;52.266;10.522;2022-08-06T03:50:02;13.00;99.90
1538;DHT22;12022;52.266;10.522;2022-08-06T03:52:29;13.00;99.90
1538;DHT22;12022;52.266;10.522;2022-08-06T03:55:03;13.00;99.90
1538;DHT22;12022;52.266;10.522;2022-08-06T03:57:40;13.00;99.90
1538;DHT22;12022;52.266;10.522;2022-08-06T04:00:19;13.00;99.90
1538;DHT22;12022;52.266;10.522;2022-08-06T04:02:55;13.00;99.90
1538;DHT22;12022;52.266;10.522;2022-08-06T04:05:28;13.00;99.90
1538;DHT22;12022;52.266;10.522;2022-08-06T04:07:59;13.00;99.90
1538;DHT22;12022;52.266;10.522;2022-08-06T04:13:21;13.00;99.90
1538;DHT22;12022;52.266;10.522;2022-08-06T04:16:11;13.00;99.90
1538;DHT22;12022;52.266;10.522;2022-08-06T04:18:41;13.00;99.90
1538;DHT22;12022;52.266;10.522;2022-08-06T04:21:19;13.10;99.90
1538;DHT22;12022;52.266;10.522;2022-08-06T04:24:06;13.10;99.90
1538;DHT22;12022;52.266;10.522;2022-08-06T04:26:37;13.10;99.90
1538;DHT22;12022;52.266;10.522;2022-08-06T04:29:08;13.20;99.90
1538;DHT22;12022;52.266;10.522;2022-08-06T04:31:39;13.30;99.90
1538;DHT22;12022;52.266;10.522;2022-08-06T04:34:29;13.30;99.90
1538;DHT22;12022;52.266;10.522;2022-08-06T04:36:58;13.40;99.90
1538;DHT22;12022;52.266;10.522;2022-08-06T04:39:28;13.50;99.90
1538;DHT22;12022;52.266;10.522;2022-08-06T04:42:06;13.60;99.90
1538;DHT22;12022;52.266;10.522;2022-08-06T04:44:36;13.60;99.90
1538;DHT22;12022;52.266;10.522;2022-08-06T04:47:11;13.60;99.90
1538;DHT22;12022;52.266;10.522;2022-08-06T04:49:40;13.80;99.90
1538;DHT22;12022;52.266;10.522;2022-08-06T04:52:28;13.80;99.90
1538;DHT22;12022;52.266;10.522;2022-08-06T04:55:18;14.10;99.90
1538;DHT22;12022;52.266;10.522;2022-08-06T04:57:59;14.50;99.90
1538;DHT22;12022;52.266;10.522;2022-08-06T05:00:36;14.80;99.90
1538;DHT22;12022;52.266;10.522;2022-08-06T05:03:23;15.40;99.90
1538;DHT22;12022;52.266;10.522;2022-08-06T05:06:35;16.60;99.90
1538;DHT22;12022;52.266;10.522;2022-08-06T05:09:09;18.10;99.90
1538;DHT22;12022;52.266;10.522;2022-08-06T05:12:00;19.50;99.90
1538;DHT22;12022;52.266;10.522;2022-08-06T05:14:49;20.80;99.90
1538;DHT22;12022;52.266;10.522;2022-08-06T05:17:22;22.10;99.90
1538;DHT22;12022;52.266;10.522;2022-08-06T05:20:16;23.20;99.90
1538;DHT22;12022;52.266;10.522;2022-08-06T05:23:24;24.30;99.90
1538;DHT22;12022;52.266;10.522;2022-08-06T05:25:57;25.40;99.90
1538;DHT22;12022;52.266;10.522;2022-08-06T05:28:25;26.30;99.90
1538;DHT22;12022;52.266;10.522;2022-08-06T05:30:54;26.80;99.90
1538;DHT22;12022;52.266;10.522;2022-08-06T05:33:31;27.50;99.90
1538;DHT22;12022;52.266;10.522;2022-08-06T05:36:07;28.10;99.90
1538;DHT22;12022;52.266;10.522;2022-08-06T05:38:45;28.70;99.90
1538;DHT22;12022;52.266;10.522;2022-08-06T05:41:26;29.10;99.90
1538;DHT22;12022;52.266;10.522;2022-08-06T05:43:56;29.70;99.90
1538;DHT22;12022;52.266;10.522;2022-08-06T05:46:56;30.40;99.90
1538;DHT22;12022;52.266;10.522;2022-08-06T05:49:42;31.00;98.80
1538;DHT22;12022;52.266;10.522;2022-08-06T05:52:34;31.50;98.70
1538;DHT22;12022;52.266;10.522;2022-08-06T05:55:25;32.00;94.90
1538;DHT22;12022;52.266;10.522;2022-08-06T05:58:13;32.60;93.00
1538;DHT22;12022;52.266;10.522;2022-08-06T06:00:42;33.10;91.90
1538;DHT22;12022;52.266;10.522;2022-08-06T06:03:15;33.40;88.10
1538;DHT22;12022;52.266;10.522;2022-08-06T06:05:52;33.60;88.00
1538;DHT22;12022;52.266;10.522;2022-08-06T06:08:40;34.10;85.80
1538;DHT22;12022;52.266;10.522;2022-08-06T06:11:24;34.50;86.60
1538;DHT22;12022;52.266;10.522;2022-08-06T06:14:40;35.00;81.00
1538;DHT22;12022;52.266;10.522;2022-08-06T06:22:51;36.20;77.70
1538;DHT22;12022;52.266;10.522;2022-08-06T06:25:31;36.20;78.50
1538;DHT22;12022;52.266;10.522;2022-08-06T06:28:05;36.60;79.50
1538;DHT22;12022;52.266;10.522;2022-08-06T06:31:54;36.90;75.30
1538;DHT22;12022;52.266;10.522;2022-08-06T06:34:34;37.20;72.30
1538;DHT22;12022;52.266;10.522;2022-08-06T06:37:11;37.70;70.00
1538;DHT22;12022;52.266;10.522;2022-08-06T06:40:04;37.90;69.20
1538;DHT22;12022;52.266;10.522;2022-08-06T06:48:52;39.40;69.10
1538;DHT22;12022;52.266;10.522;2022-08-06T06:51:33;39.80;67.40
1538;DHT22;12022;52.266;10.522;2022-08-06T06:54:32;39.90;63.70
1538;DHT22;12022;52.266;10.522;2022-08-06T06:57:05;40.30;67.10
1538;DHT22;12022;52.266;10.522;2022-08-06T06:59:39;40.60;66.30
1538;DHT22;12022;52.266;10.522;2022-08-06T07:02:33;40.90;59.80
1538;DHT22;12022;52.266;10.522;2022-08-06T07:05:04;40.80;58.50
1538;DHT22;12022;52.266;10.522;2022-08-06T07:07:37;40.90;61.80
1538;DHT22;12022;52.266;10.522;2022-08-06T07:10:08;41.00;59.80
1538;DHT22;12022;52.266;10.522;2022-08-06T07:12:37;41.00;59.20
1538;DHT22;12022;52.266;10.522;2022-08-06T07:15:07;40.80;59.80
1538;DHT22;12022;52.266;10.522;2022-08-06T07:17:45;40.40;55.00
1538;DHT22;12022;52.266;10.522;2022-08-06T07:20:22;40.00;57.40
1538;DHT22;12022;52.266;10.522;2022-08-06T07:22:58;40.10;57.00
1538;DHT22;12022;52.266;10.522;2022-08-06T07:25:47;40.70;58.60
1538;DHT22;12022;52.266;10.522;2022-08-06T07:28:23;41.20;57.90
1538;DHT22;12022;52.266;10.522;2022-08-06T07:30:56;40.90;53.80
1538;DHT22;12022;52.266;10.522;2022-08-06T07:33:34;40.40;55.60
1538;DHT22;12022;52.266;10.522;2022-08-06T07:36:23;39.80;54.50
1538;DHT22;12022;52.266;10.522;2022-08-06T07:38:58;40.00;55.10
1538;DHT22;12022;52.266;10.522;2022-08-06T07:41:27;40.30;57.60
1538;DHT22;12022;52.266;10.522;2022-08-06T07:44:15;40.50;54.80
1538;DHT22;12022;52.266;10.522;2022-08-06T07:46:50;40.80;55.50
1538;DHT22;12022;52.266;10.522;2022-08-06T07:49:23;40.40;53.80
1538;DHT22;12022;52.266;10.522;2022-08-06T07:52:14;39.80;53.20
1538;DHT22;12022;52.266;10.522;2022-08-06T07:54:44;39.10;55.40
1538;DHT22;12022;52.266;10.522;2022-08-06T07:57:12;38.80;53.00
1538;DHT22;12022;52.266;10.522;2022-08-06T07:59:52;38.60;55.30
1538;DHT22;12022;52.266;10.522;2022-08-06T08:02:22;38.90;55.10
1538;DHT22;12022;52.266;10.522;2022-08-06T08:04:57;39.10;55.70
1538;DHT22;12022;52.266;10.522;2022-08-06T08:07:45;39.10;52.90
1538;DHT22;12022;52.266;10.522;2022-08-06T08:10:24;37.10;52.70
1538;DHT22;12022;52.266;10.522;2022-08-06T08:12:55;34.70;56.70
1538;DHT22;12022;52.266;10.522;2022-08-06T08:15:30;32.50;57.80
1538;DHT22;12022;52.266;10.522;2022-08-06T08:18:00;30.60;60.70
1538;DHT22;12022;52.266;10.522;2022-08-06T08:20:29;29.50;67.10
1538;DHT22;12022;52.266;10.522;2022-08-06T08:23:06;28.90;69.10
1538;DHT22;12022;52.266;10.522;2022-08-06T08:25:56;28.30;72.00
1538;DHT22;12022;52.266;10.522;2022-08-06T08:28:24;27.40;72.50
1538;DHT22;12022;52.266;10.522;2022-08-06T08:30:55;26.60;76.20
1538;DHT22;12022;52.266;10.522;2022-08-06T08:33:46;25.90;80.00
1538;DHT22;12022;52.266;10.522;2022-08-06T08:36:13;25.40;83.40
1538;DHT22;12022;52.266;10.522;2022-08-06T08:38:40;25.10;86.60
1538;DHT22;12022;52.266;10.522;2022-08-06T08:41:16;24.90;87.20
1538;DHT22;12022;52.266;10.522;2022-08-06T08:44:03;24.70;87.70
1538;DHT22;12022;52.266;10.522;2022-08-06T08:46:39;24.30;87.70
1538;DHT22;12022;52.266;10.522;2022-08-06T08:49:45;24.00;90.80
1538;DHT22;12022;52.266;10.522;2022-08-06T08:52:16;23.70;91.40
1538;DHT22;12022;52.266;10.522;2022-08-06T08:54:50;23.30;91.20
1538;DHT22;12022;52.266;10.522;2022-08-06T08:57:18;23.00;93.00
1538;DHT22;12022;52.266;10.522;2022-08-06T09:00:06;22.80;93.10
1538;DHT22;12022;52.266;10.522;2022-08-06T09:02:40;22.50;93.50
1538;DHT22;12022;52.266;10.522;2022-08-06T09:05:16;22.20;94.50
1538;DHT22;12022;52.266;10.522;2022-08-06T09:07:44;22.10;96.40
1538;DHT22;12022;52.266;10.522;2022-08-06T09:10:27;22.10;97.80
1538;DHT22;12022;52.266;10.522;2022-08-06T09:12:58;22.00;97.90
1538;DHT22;12022;52.266;10.522;2022-08-06T09:15:27;22.00;98.70
1538;DHT22;12022;52.266;10.522;2022-08-06T09:17:58;21.90;99.30
1538;DHT22;12022;52.266;10.522;2022-08-06T09:20:45;22.00;99.90
1538;DHT22;12022;52.266;10.522;2022-08-06T09:23:13;22.10;99.50
1538;DHT22;12022;52.266;10.522;2022-08-06T09:25:50;22.10;99.90
1538;DHT22;12022;52.266;10.522;2022-08-06T09:28:41;22.00;99.00
1538;DHT22;12022;52.266;10.522;2022-08-06T09:31:13;21.90;99.70
1538;DHT22;12022;52.266;10.522;2022-08-06T09:36:46;21.70;99.90
1538;DHT22;12022;52.266;10.522;2022-08-06T09:39:30;21.60;99.90
1538;DHT22;12022;52.266;10.522;2022-08-06T09:42:12;21.60;99.90
1538;DHT22;12022;52.266;10.522;2022-08-06T09:44:40;21.70;99.90
1538;DHT22;12022;52.266;10.522;2022-08-06T09:47:07;21.70;99.90
1538;DHT22;12022;52.266;10.522;2022-08-06T09:49:48;21.60;99.90
1538;DHT22;12022;52.266;10.522;2022-08-06T09:52:26;21.60;99.90
1538;DHT22;12022;52.266;10.522;2022-08-06T09:54:53;21.50;99.90
1538;DHT22;12022;52.266;10.522;2022-08-06T09:57:25;21.60;99.90
1538;DHT22;12022;52.266;10.522;2022-08-06T10:00:04;21.70;99.90
1538;DHT22;12022;52.266;10.522;2022-08-06T10:02:41;21.90;99.90
1538;DHT22;12022;52.266;10.522;2022-08-06T10:05:17;21.80;99.50
1538;DHT22;12022;52.266;10.522;2022-08-06T10:07:47;21.70;99.70
1538;DHT22;12022;52.266;10.522;2022-08-06T10:10:41;21.70;99.90
1538;DHT22;12022;52.266;10.522;2022-08-06T10:13:25;21.60;99.90
1538;DHT22;12022;52.266;10.522;2022-08-06T10:16:17;21.60;99.90
1538;DHT22;12022;52.266;10.522;2022-08-06T10:18:48;21.70;99.90
1538;DHT22;12022;52.266;10.522;2022-08-06T10:21:26;21.90;99.90
1538;DHT22;12022;52.266;10.522;2022-08-06T10:24:09;21.90;99.90
1538;DHT22;12022;52.266;10.522;2022-08-06T10:26:38;22.00;99.00
1538;DHT22;12022;52.266;10.522;2022-08-06T10:29:10;22.00;99.90
1538;DHT22;12022;52.266;10.522;2022-08-06T10:31:40;22.00;99.40
1538;DHT22;12022;52.266;10.522;2022-08-06T10:34:10;22.10;99.30
1538;DHT22;12022;52.266;10.522;2022-08-06T10:36:45;22.10;99.60
1538;DHT22;12022;52.266;10.522;2022-08-06T10:39:14;22.10;98.80
1538;DHT22;12022;52.266;10.522;2022-08-06T10:42:03;22.20;99.90
1538;DHT22;12022;52.266;10.522;2022-08-06T10:44:51;22.40;99.80
1538;DHT22;12022;52.266;10.522;2022-08-06T10:47:20;22.40;97.90
1538;DHT22;12022;52.266;10.522;2022-08-06T10:50:09;22.30;97.50
1538;DHT22;12022;52.266;10.522;2022-08-06T10:52:57;22.30;97.40
1538;DHT22;12022;52.266;10.522;2022-08-06T10:55:28;22.00;97.20
1538;DHT22;12022;52.266;10.522;2022-08-06T10:58:10;21.90;99.70
1538;DHT22;12022;52.266;10.522;2022-08-06T11:00:40;21.90;99.90
1538;DHT22;12022;52.266;10.522;2022-08-06T11:03:32;22.10;99.90
1538;DHT22;12022;52.266;10.522;2022-08-06T11:06:24;22.30;99.90
1538;DHT22;12022;52.266;10.522;2022-08-06T11:14:37;22.70;98.00
1538;DHT22;12022;52.266;10.522;2022-08-06T11:17:04;22.60;97.40
1538;DHT22;12022;52.266;10.522;2022-08-06T11:19:47;22.40;98.00
1538;DHT22;12022;52.266;10.522;2022-08-06T11:25:03;22.40;99.30
1538;DHT22;12022;52.266;10.522;2022-08-06T11:27:55;22.40;97.70
1538;DHT22;12022;52.266;10.522;2022-08-06T11:30:47;22.50;99.40
1538;DHT22;12022;52.266;10.522;2022-08-06T11:33:57;22.60;99.60
1538;DHT22;12022;52.266;10.522;2022-08-06T11:36:25;22.70;99.00
1538;DHT22;12022;52.266;10.522;2022-08-06T11:41:28;23.00;97.20
1538;DHT22;12022;52.266;10.522;2022-08-06T11:44:19;23.10;98.20
1538;DHT22;12022;52.266;10.522;2022-08-06T11:47:15;23.00;97.40
1538;DHT22;12022;52.266;10.522;2022-08-06T11:50:03;23.00;98.30
1538;DHT22;12022;52.266;10.522;2022-08-06T11:52:39;22.90;98.50
1538;DHT22;12022;52.266;10.522;2022-08-06T11:55:13;22.90;96.60
1538;DHT22;12022;52.266;10.522;2022-08-06T12:01:00;22.60;94.50
1538;DHT22;12022;52.266;10.522;2022-08-06T12:03:47;22.50;97.30
1538;DHT22;12022;52.266;10.522;2022-08-06T12:06:22;22.50;94.80
1538;DHT22;12022;52.266;10.522;2022-08-06T12:09:11;22.50;94.20
1538;DHT22;12022;52.266;10.522;2022-08-06T12:11:50;22.40;95.60
1538;DHT22;12022;52.266;10.522;2022-08-06T12:14:38;22.40;94.80
1538;DHT22;12022;52.266;10.522;2022-08-06T12:17:21;22.40;96.20
1538;DHT22;12022;52.266;10.522;2022-08-06T12:19:50;22.40;96.80
1538;DHT22;12022;52.266;10.522;2022-08-06T12:22:34;22.40;95.90
1538;DHT22;12022;52.266;10.522;2022-08-06T12:25:06;22.50;96.20
1538;DHT22;12022;52.266;10.522;2022-08-06T12:27:39;22.60;96.70
1538;DHT22;12022;52.266;10.522;2022-08-06T12:30:20;22.90;97.60
1538;DHT22;12022;52.266;10.522;2022-08-06T12:33:04;23.10;97.60
1538;DHT22;12022;52.266;10.522;2022-08-06T12:38:23;23.60;96.30
1538;DHT22;12022;52.266;10.522;2022-08-06T12:40:58;23.80;97.10
1538;DHT22;12022;52.266;10.522;2022-08-06T12:43:27;23.90;95.60
1538;DHT22;12022;52.266;10.522;2022-08-06T12:46:12;23.90;94.00
1538;DHT22;12022;52.266;10.522;2022-08-06T12:48:48;23.80;93.20
1538;DHT22;12022;52.266;10.522;2022-08-06T12:51:16;23.60;94.20
1538;DHT22;12022;52.266;10.522;2022-08-06T12:56:15;23.30;94.40
1538;DHT22;12022;52.266;10.522;2022-08-06T12:58:59;23.30;94.70
1538;DHT22;12022;52.266;10.522;2022-08-06T13:01:29;23.10;93.50
1538;DHT22;12022;52.266;10.522;2022-08-06T13:04:18;22.90;94.10
1538;DHT22;12022;52.266;10.522;2022-08-06T13:06:47;22.80;93.60
1538;DHT22;12022;52.266;10.522;2022-08-06T13:09:17;22.60;93.00
1538;DHT22;12022;52.266;10.522;2022-08-06T13:12:14;22.50;93.50
1538;DHT22;12022;52.266;10.522;2022-08-06T13:14:56;22.40;93.30
1538;DHT22;12022;52.266;10.522;2022-08-06T13:18:06;22.40;93.90
1538;DHT22;12022;52.266;10.522;2022-08-06T13:20:54;22.40;94.80
1538;DHT22;12022;52.266;10.522;2022-08-06T13:23:35;22.40;94.00
1538;DHT22;12022;52.266;10.522;2022-08-06T13:29:10;22.40;95.80
1538;DHT22;12022;52.266;10.522;2022-08-06T13:32:09;22.40;96.20
1538;DHT22;12022;52.266;10.522;2022-08-06T13:34:58;22.30;94.50
1538;DHT22;12022;52.266;10.522;2022-08-06T13:37:47;22.30;95.10
1538;DHT22;12022;52.266;10.522;2022-08-06T13:40:45;22.40;95.90
1538;DHT22;12022;52.266;10.522;2022-08-06T13:43:39;22.40;96.60
1538;DHT22;12022;52.266;10.522;2022-08-06T13:46:17;22.50;94.80
1538;DHT22;12022;52.266;10.522;2022-08-06T13:48:55;22.60;94.30
1538;DHT22;12022;52.266;10.522;2022-08-06T13:51:24;22.60;94.40
1538;DHT22;12022;52.266;10.522;2022-08-06T13:53:56;22.60;94.00
1538;DHT22;12022;52.266;10.522;2022-08-06T13:56:25;22.60;93.30
1538;DHT22;12022;52.266;10.522;2022-08-06T13:58:59;22.70;95.20
1538;DHT22;12022;52.266;10.522;2022-08-06T14:01:27;22.80;95.60
1538;DHT22;12022;52.266;10.522;2022-08-06T14:04:16;23.00;96.60
1538;DHT22;12022;52.266;10.522;2022-08-06T14:06:45;23.20;95.60
1538;DHT22;12022;52.266;10.522;2022-08-06T14:09:15;23.20;95.80
1538;DHT22;12022;52.266;10.522;2022-08-06T14:11:59;23.20;94.50
1538;DHT22;12022;52.266;10.522;2022-08-06T14:14:29;23.20;94.10
1538;DHT22;12022;52.266;10.522;2022-08-06T14:16:58;23.10;94.20
1538;DHT22;12022;52.266;10.522;2022-08-06T14:19:26;23.00;94.00
1538;DHT22;12022;52.266;10.522;2022-08-06T14:22:14;22.90;93.40
1538;DHT22;12022;52.266;10.522;2022-08-06T14:24:44;22.80;93.40
1538;DHT22;12022;52.266;10.522;2022-08-06T14:27:20;22.70;94.90
1538;DHT22;12022;52.266;10.522;2022-08-06T14:29:51;22.70;93.70
1538;DHT22;12022;52.266;10.522;2022-08-06T14:32:39;22.60;94.00
1538;DHT22;12022;52.266;10.522;2022-08-06T14:35:07;22.60;97.40
1538;DHT22;12022;52.266;10.522;2022-08-06T14:37:40;22.60;96.90
1538;DHT22;12022;52.266;10.522;2022-08-06T14:40:23;22.60;96.40
1538;DHT22;12022;52.266;10.522;2022-08-06T14:43:28;22.50;97.10
1538;DHT22;12022;52.266;10.522;2022-08-06T14:46:26;22.40;96.90
1538;DHT22;12022;52.266;10.522;2022-08-06T14:49:00;22.40;97.20
1538;DHT22;12022;52.266;10.522;2022-08-06T14:51:38;22.40;96.10
1538;DHT22;12022;52.266;10.522;2022-08-06T14:54:25;22.30;97.80
1538;DHT22;12022;52.266;10.522;2022-08-06T14:56:59;22.40;98.30
1538;DHT22;12022;52.266;10.522;2022-08-06T14:59:28;22.50;98.00
1538;DHT22;12022;52.266;10.522;2022-08-06T15:02:08;22.60;97.10
1538;DHT22;12022;52.266;10.522;2022-08-06T15:04:36;22.60;96.40
1538;DHT22;12022;52.266;10.522;2022-08-06T15:07:03;22.60;98.20
1538;DHT22;12022;52.266;10.522;2022-08-06T15:09:31;22.70;98.20
1538;DHT22;12022;52.266;10.522;2022-08-06T15:12:19;22.70;95.30
1538;DHT22;12022;52.266;10.522;2022-08-06T15:15:06;22.60;94.00
1538;DHT22;12022;52.266;10.522;2022-08-06T15:17:40;22.60;95.40
1538;DHT22;12022;52.266;10.522;2022-08-06T15:20:27;22.60;95.00
1538;DHT22;12022;52.266;10.522;2022-08-06T15:22:54;22.60;94.20
1538;DHT22;12022;52.266;10.522;2022-08-06T15:25:23;22.50;93.50
1538;DHT22;12022;52.266;10.522;2022-08-06T15:28:10;22.50;93.10
1538;DHT22;12022;52.266;10.522;2022-08-06T15:30:38;22.50;95.10
1538;DHT22;12022;52.266;10.522;2022-08-06T15:33:05;22.50;96.00
1538;DHT22;12022;52.266;10.522;2022-08-06T15:35:38;22.70;95.70
1538;DHT22;12022;52.266;10.522;2022-08-06T15:38:23;22.80;93.80
1538;DHT22;12022;52.266;10.522;2022-08-06T15:40:50;22.90;96.30
1538;DHT22;12022;52.266;10.522;2022-08-06T15:43:17;23.00;94.60
1538;DHT22;12022;52.266;10.522;2022-08-06T15:45:50;23.00;94.70
1538;DHT22;12022;52.266;10.522;2022-08-06T15:48:25;23.20;96.00
1538;DHT22;12022;52.266;10.522;2022-08-06T15:50:59;23.30;96.10
1538;DHT22;12022;52.266;10.522;2022-08-06T15:53:46;23.40;96.80
1538;DHT22;12022;52.266;10.522;2022-08-06T15:56:24;23.50;96.10
1538;DHT22;12022;52.266;10.522;2022-08-06T15:59:12;23.50;94.70
1538;DHT22;12022;52.266;10.522;2022-08-06T16:01:45;23.50;95.00
1538;DHT22;12022;52.266;10.522;2022-08-06T16:04:31;23.50;95.40
1538;DHT22;12022;52.266;10.522;2022-08-06T16:07:06;23.50;93.30
1538;DHT22;12022;52.266;10.522;2022-08-06T16:09:35;23.40;93.80
1538;DHT22;12022;52.266;10.522;2022-08-06T16:12:22;23.30;94.00
1538;DHT22;12022;52.266;10.522;2022-08-06T16:14:50;23.20;95.40
1538;DHT22;12022;52.266;10.522;2022-08-06T16:17:25;23.20;95.60
1538;DHT22;12022;52.266;10.522;2022-08-06T16:20:16;23.20;94.70
1538;DHT22;12022;52.266;10.522;2022-08-06T16:22:49;23.10;95.00
1538;DHT22;12022;52.266;10.522;2022-08-06T16:25:17;23.00;94.50
1538;DHT22;12022;52.266;10.522;2022-08-06T16:27:46;23.00;94.30
1538;DHT22;12022;52.266;10.522;2022-08-06T16:30:15;22.90;95.40
1538;DHT22;12022;52.266;10.522;2022-08-06T16:32:42;22.90;94.40
1538;DHT22;12022;52.266;10.522;2022-08-06T16:35:11;22.80;93.10
1538;DHT22;12022;52.266;10.522;2022-08-06T16:37:43;22.50;92.70
1538;DHT22;12022;52.266;10.522;2022-08-06T16:40:33;22.60;92.50
1538;DHT22;12022;52.266;10.522;2022-08-06T16:43:01;22.50;91.70
1538;DHT22;12022;52.266;10.522;2022-08-06T16:45:29;22.40;93.20
1538;DHT22;12022;52.266;10.522;2022-08-06T16:48:16;22.30;93.20
1538;DHT22;12022;52.266;10.522;2022-08-06T16:50:53;22.30;93.20
1538;DHT22;12022;52.266;10.522;2022-08-06T16:53:28;22.20;94.00
1538;DHT22;12022;52.266;10.522;2022-08-06T16:56:15;22.10;93.60
1538;DHT22;12022;52.266;10.522;2022-08-06T16:58:43;22.10;95.80
1538;DHT22;12022;52.266;10.522;2022-08-06T17:01:18;22.10;95.00
1538;DHT22;12022;52.266;10.522;2022-08-06T17:04:07;22.10;93.70
1538;DHT22;12022;52.266;10.522;2022-08-06T17:06:34;22.00;95.40
1538;DHT22;12022;52.266;10.522;2022-08-06T17:09:04;22.00;95.70
1538;DHT22;12022;52.266;10.522;2022-08-06T17:11:54;22.00;95.90
1538;DHT22;12022;52.266;10.522;2022-08-06T17:14:27;21.90;95.30
1538;DHT22;12022;52.266;10.522;2022-08-06T17:17:02;21.80;93.30
1538;DHT22;12022;52.266;10.522;2022-08-06T17:19:33;21.80;93.10
1538;DHT22;12022;52.266;10.522;2022-08-06T17:22:03;21.70;93.20
1538;DHT22;12022;52.266;10.522;2022-08-06T17:24:33;21.70;93.70
1538;DHT22;12022;52.266;10.522;2022-08-06T17:27:09;21.70;93.30
1538;DHT22;12022;52.266;10.522;2022-08-06T17:29:45;21.60;93.50
1538;DHT22;12022;52.266;10.522;2022-08-06T17:32:19;21.60;94.50
1538;DHT22;12022;52.266;10.522;2022-08-06T17:34:58;21.50;93.50